Time;durP1;ratioP1;P1;durP2;ratioP2;P2;SDS_P1;SDS_P2;PMS_P1;PMS_P2;Temp;Humidity;BMP_temperature;BMP_pressure;BME280_temperature;BME280_humidity;BME280_pressure;Samples;Min_cycle;Max_cycle;Signal;HPM_P1;HPM_P2
2022/08/29 00:00:55;;;;;;;3.73;2.20;;;15.70;99.90;;;;;;5034449;28;20058;-78
2022/08/29 00:03:21;;;;;;;7.67;3.13;;;15.90;99.90;;;;;;5034218;28;20076;-79
2022/08/29 00:05:46;;;;;;;3.90;2.40;;;15.70;99.90;;;;;;5033227;28;20128;-79
2022/08/29 00:08:12;;;;;;;6.67;2.33;;;15.60;99.90;;;;;;5034335;28;20049;-79
2022/08/29 00:10:39;;;;;;;6.13;2.60;;;15.60;99.90;;;;;;5034018;28;20539;-78
2022/08/29 00:13:06;;;;;;;;;;;15.60;99.90;;;;;;5034336;28;20493;-78
2022/08/29 00:15:32;;;;;;;7.28;2.67;;;16.10;99.90;;;;;;5034038;28;19928;-78
2022/08/29 00:17:58;;;;;;;8.02;2.78;;;15.60;99.90;;;;;;5032506;28;20563;-79
2022/08/29 00:20:26;;;;;;;5.37;2.47;;;15.60;99.90;;;;;;5033951;28;20073;-78
2022/08/29 00:22:52;;;;;;;5.40;2.63;;;15.60;99.90;;;;;;5033927;28;20041;-78
2022/08/29 00:25:18;;;;;;;6.22;2.58;;;15.70;99.90;;;;;;5033990;28;20056;-78
2022/08/29 00:27:44;;;;;;;6.13;2.77;;;15.70;99.90;;;;;;5032910;28;20488;-79
2022/08/29 00:30:11;;;;;;;6.10;2.70;;;15.90;99.90;;;;;;5016146;28;20045;-79
2022/08/29 00:32:37;;;;;;;4.53;2.33;;;15.70;99.90;;;;;;5034351;28;20064;-79
2022/08/29 00:35:07;;;;;;;6.10;2.97;;;15.70;99.90;;;;;;5032841;28;20473;-78
2022/08/29 00:37:33;;;;;;;6.50;2.25;;;15.70;99.90;;;;;;5033567;28;20110;-78
2022/08/29 00:39:58;;;;;;;7.23;2.90;;;15.70;99.90;;;;;;5032585;28;20053;-79
2022/08/29 00:42:24;;;;;;;4.17;2.30;;;15.70;99.90;;;;;;5033088;28;20049;-78
2022/08/29 00:44:50;;;;;;;5.70;3.15;;;15.70;99.90;;;;;;5033643;28;20056;-78
2022/08/29 00:47:22;;;;;;;6.85;2.60;;;15.70;99.90;;;;;;5033658;28;20080;-79
2022/08/29 00:49:51;;;;;;;4.60;2.50;;;15.80;99.90;;;;;;5033452;28;20481;-79
2022/08/29 00:52:27;;;;;;;6.25;2.80;;;15.70;99.90;;;;;;5033222;28;20038;-79
2022/08/29 00:54:54;;;;;;;5.70;2.75;;;15.70;99.90;;;;;;5033575;28;20052;-78
2022/08/29 00:57:22;;;;;;;4.47;2.40;;;15.70;99.90;;;;;;5033518;28;20038;-79
2022/08/29 00:59:49;;;;;;;5.35;2.47;;;15.70;99.90;;;;;;5033601;28;20401;-79
2022/08/29 01:02:16;;;;;;;5.18;2.60;;;15.70;99.90;;;;;;5033528;28;20478;-78
2022/08/29 01:04:41;;;;;;;5.03;2.50;;;15.70;99.90;;;;;;5033470;28;20099;-78
2022/08/29 01:07:09;;;;;;;4.70;2.60;;;15.70;99.90;;;;;;5033437;28;20053;-78
2022/08/29 01:09:37;;;;;;;7.70;3.25;;;15.70;99.90;;;;;;5033338;28;20052;-78
2022/08/29 01:12:15;;;;;;;6.03;2.85;;;15.70;99.90;;;;;;5033347;28;20543;-78
2022/08/29 01:14:53;;;;;;;5.38;2.40;;;15.70;99.90;;;;;;5033612;28;20107;-78
2022/08/29 01:17:26;;;;;;;7.20;2.90;;;15.70;99.90;;;;;;5033398;28;20497;-79
2022/08/29 01:20:22;;;;;;;8.30;2.75;;;15.70;99.90;;;;;;5033370;28;20067;-79
2022/08/29 01:22:55;;;;;;;5.82;2.72;;;15.80;99.90;;;;;;5031872;28;20140;-79
2022/08/29 01:25:23;;;;;;;5.70;2.97;;;15.80;99.90;;;;;;5033360;28;20045;-78
2022/08/29 01:28:08;;;;;;;4.57;2.72;;;15.80;99.90;;;;;;5032325;28;20057;-79
2022/08/29 01:30:34;;;;;;;5.90;2.90;;;15.70;99.90;;;;;;5033211;28;20042;-79
2022/08/29 01:32:59;;;;;;;8.33;3.37;;;15.80;99.90;;;;;;5033266;28;20043;-79
2022/08/29 01:35:26;;;;;;;6.20;2.70;;;15.80;99.90;;;;;;5032266;28;20477;-78
2022/08/29 01:37:52;;;;;;;7.57;3.13;;;15.70;99.90;;;;;;5033485;28;20049;-79
2022/08/29 01:40:18;;;;;;;7.50;3.10;;;15.70;99.90;;;;;;5031797;28;20470;-79
2022/08/29 01:42:44;;;;;;;5.93;3.05;;;15.70;99.90;;;;;;5033333;28;20133;-78
2022/08/29 01:45:09;;;;;;;5.77;3.07;;;15.80;99.90;;;;;;5015515;28;20045;-79
2022/08/29 01:47:37;;;;;;;6.27;2.83;;;15.80;99.90;;;;;;5033065;28;20083;-79
2022/08/29 01:50:07;;;;;;;6.78;3.15;;;15.80;99.90;;;;;;5033012;28;20060;-79
2022/08/29 01:52:33;;;;;;;7.10;2.88;;;15.80;99.90;;;;;;5032024;28;20045;-79
2022/08/29 01:54:59;;;;;;;5.53;3.00;;;15.80;99.90;;;;;;5036794;28;20060;-79
2022/08/29 01:57:24;;;;;;;5.87;3.00;;;15.70;99.90;;;;;;5036543;28;20045;-79
2022/08/29 01:59:50;;;;;;;6.93;3.30;;;15.70;99.90;;;;;;5036473;28;20045;-78
2022/08/29 02:02:21;;;;;;;6.50;3.17;;;15.80;99.90;;;;;;5037314;28;20466;-78
2022/08/29 02:04:47;;;;;;;5.10;3.20;;;15.80;99.90;;;;;;5036443;28;20520;-78
2022/08/29 02:07:18;;;;;;;6.85;3.53;;;15.80;99.90;;;;;;5036351;28;20049;-78
2022/08/29 02:09:44;;;;;;;6.15;3.28;;;15.70;99.90;;;;;;5036540;28;20054;-79
2022/08/29 02:12:10;;;;;;;6.50;2.85;;;15.70;99.90;;;;;;5036251;28;20045;-79
2022/08/29 02:14:36;;;;;;;5.63;2.90;;;15.70;99.90;;;;;;5018555;28;20067;-79
2022/08/29 02:17:02;;;;;;;8.17;3.20;;;15.70;99.90;;;;;;5034808;28;20460;-78
2022/08/29 02:19:28;;;;;;;7.82;3.53;;;15.70;99.90;;;;;;5035436;28;20509;-79
2022/08/29 02:21:53;;;;;;;4.60;2.80;;;15.70;99.90;;;;;;5036188;28;20044;-78
2022/08/29 02:24:19;;;;;;;7.37;3.10;;;15.70;99.90;;;;;;5036100;28;20172;-79
2022/08/29 02:26:45;;;;;;;6.23;3.27;;;15.70;99.90;;;;;;5036012;28;20049;-78
2022/08/29 02:29:11;;;;;;;8.03;3.40;;;15.70;99.90;;;;;;5035914;28;20056;-78
2022/08/29 02:31:39;;;;;;;6.25;3.05;;;15.70;99.90;;;;;;5036320;28;20053;-78
2022/08/29 02:34:05;;;;;;;7.68;2.97;;;15.70;99.90;;;;;;5035871;28;20048;-79
2022/08/29 02:36:31;;;;;;;6.22;3.40;;;15.70;99.90;;;;;;5036111;28;20053;-79
2022/08/29 02:38:56;;;;;;;6.17;3.10;;;15.60;99.90;;;;;;5035834;28;20042;-78
2022/08/29 02:41:22;;;;;;;7.20;3.37;;;15.60;99.90;;;;;;5035788;28;20124;-79
2022/08/29 02:43:48;;;;;;;8.20;3.57;;;15.60;99.90;;;;;;5034434;28;20049;-78
2022/08/29 02:46:18;;;;;;;5.80;3.60;;;15.60;99.90;;;;;;5034769;28;20049;-78
2022/08/29 02:48:45;;;;;;;5.78;3.08;;;15.60;99.90;;;;;;5035996;28;20057;-78
2022/08/29 02:51:17;;;;;;;;;;;15.50;99.90;;;;;;5035881;28;20041;-78
2022/08/29 02:53:43;;;;;;;5.90;3.20;;;15.60;99.90;;;;;;5035710;28;19921;-78
2022/08/29 02:56:09;;;;;;;7.47;3.37;;;15.60;99.90;;;;;;5035465;28;20121;-78
2022/08/29 02:58:34;;;;;;;5.97;3.30;;;15.50;99.90;;;;;;5035688;28;20453;-78
2022/08/29 03:01:00;;;;;;;8.87;3.47;;;15.50;99.90;;;;;;5035386;28;20051;-79
2022/08/29 03:03:26;;;;;;;6.27;3.27;;;15.50;99.90;;;;;;5035327;28;20132;-79
2022/08/29 03:05:53;;;;;;;6.30;3.20;;;15.50;99.90;;;;;;5034058;28;20052;-79
2022/08/29 03:08:19;;;;;;;5.88;3.50;;;15.50;99.90;;;;;;5035170;28;20120;-78
2022/08/29 03:10:45;;;;;;;8.73;3.30;;;15.50;99.90;;;;;;5035119;28;20141;-79
2022/08/29 03:13:11;;;;;;;7.73;3.33;;;15.50;99.90;;;;;;5034970;28;20045;-78
2022/08/29 03:15:37;;;;;;;5.45;3.10;;;15.50;99.90;;;;;;5035608;28;20115;-79
2022/08/29 03:18:04;;;;;;;7.70;3.80;;;15.40;99.90;;;;;;5035098;28;20493;-78
2022/08/29 03:20:29;;;;;;;6.88;3.33;;;15.40;99.90;;;;;;5035003;28;20049;-78
2022/08/29 03:22:56;;;;;;;7.90;3.78;;;15.40;99.90;;;;;;5034952;28;20481;-78
2022/08/29 03:25:23;;;;;;;8.07;3.45;;;15.40;99.90;;;;;;5035295;28;20049;-78
2022/08/29 03:27:48;;;;;;;6.20;3.55;;;15.30;99.90;;;;;;5034207;28;20053;-78
2022/08/29 03:30:16;;;;;;;11.73;3.63;;;15.30;99.90;;;;;;5034554;28;20409;-78
2022/08/29 03:32:41;;;;;;;6.97;3.55;;;15.30;99.90;;;;;;5033612;28;20148;-79
2022/08/29 03:35:08;;;;;;;6.27;3.30;;;15.30;99.90;;;;;;5017310;28;20120;-78
2022/08/29 03:37:34;;;;;;;;;;;15.20;99.90;;;;;;5035250;28;20431;-78
2022/08/29 03:40:00;;;;;;;6.82;3.10;;;15.20;99.90;;;;;;5034660;28;19921;-79
2022/08/29 03:42:26;;;;;;;6.22;3.58;;;15.20;99.90;;;;;;5033636;28;20077;-78
2022/08/29 03:44:51;;;;;;;5.70;3.27;;;15.20;99.90;;;;;;5034519;28;20519;-78
2022/08/29 03:47:17;;;;;;;6.33;3.57;;;15.20;99.90;;;;;;5034222;28;20045;-78
2022/08/29 03:49:43;;;;;;;7.93;3.87;;;15.20;99.90;;;;;;5034523;28;20042;-78
2022/08/29 03:52:08;;;;;;;7.97;3.45;;;15.20;99.90;;;;;;5034356;28;20448;-78
2022/08/29 03:54:35;;;;;;;7.43;3.60;;;15.20;99.90;;;;;;5034445;28;20042;-79
2022/08/29 03:57:03;;;;;;;;;;;15.10;99.90;;;;;;5035021;28;20041;-78
2022/08/29 03:59:30;;;;;;;6.90;3.15;;;15.20;99.90;;;;;;5034674;28;20303;-78
2022/08/29 04:01:57;;;;;;;7.05;3.47;;;15.10;99.90;;;;;;5034573;28;20048;-79
2022/08/29 04:07:08;;;;;;;6.70;3.70;;;15.10;99.90;;;;;;5032997;28;20050;-78
2022/08/29 04:09:35;;;;;;;6.00;3.22;;;15.20;99.90;;;;;;5033764;28;20481;-78
2022/08/29 04:12:01;;;;;;;6.25;3.40;;;15.20;99.90;;;;;;5033992;28;20081;-78
2022/08/29 04:14:28;;;;;;;6.23;3.50;;;15.20;99.90;;;;;;5034138;28;20096;-78
2022/08/29 04:16:54;;;;;;;7.82;3.10;;;15.20;99.90;;;;;;5033536;28;20087;-78
2022/08/29 04:19:20;;;;;;;5.53;3.30;;;15.20;99.90;;;;;;5016613;28;20049;-78
2022/08/29 04:21:47;;;;;;;7.60;3.55;;;15.10;99.90;;;;;;5033901;28;20077;-79
2022/08/29 04:24:14;;;;;;;6.78;3.22;;;15.20;99.90;;;;;;5033851;28;20092;-78
2022/08/29 04:26:39;;;;;;;6.20;3.33;;;15.20;99.90;;;;;;5033870;28;20052;-78
2022/08/29 04:29:09;;;;;;;8.63;3.27;;;15.20;99.90;;;;;;5033872;28;20041;-78
2022/08/29 04:31:36;;;;;;;7.43;3.58;;;15.20;99.90;;;;;;5033468;28;20050;-78
2022/08/29 04:34:04;;;;;;;7.20;3.67;;;15.20;99.90;;;;;;5033778;28;20103;-79
2022/08/29 04:36:32;;;;;;;5.57;3.53;;;15.20;99.90;;;;;;5033664;28;20119;-78
2022/08/29 04:38:57;;;;;;;6.53;3.70;;;15.20;99.90;;;;;;5033412;28;20056;-78
2022/08/29 04:41:23;;;;;;;7.00;3.70;;;15.20;99.90;;;;;;5033643;28;20037;-79
2022/08/29 04:43:49;;;;;;;7.60;3.43;;;15.20;99.90;;;;;;5033145;28;20041;-78
2022/08/29 04:46:15;;;;;;;7.57;3.40;;;15.20;99.90;;;;;;5033643;28;20469;-78
2022/08/29 04:48:41;;;;;;;7.72;3.50;;;15.20;99.90;;;;;;5033604;28;20448;-78
2022/08/29 04:51:06;;;;;;;8.15;3.30;;;15.20;99.90;;;;;;5033556;28;20095;-78
2022/08/29 04:53:33;;;;;;;6.07;3.67;;;15.20;99.90;;;;;;5032667;28;20061;-78
2022/08/29 04:56:02;;;;;;;8.05;3.60;;;15.10;99.90;;;;;;5032316;28;20413;-79
2022/08/29 04:58:29;;;;;;;7.25;3.58;;;15.20;99.90;;;;;;5033716;28;20199;-78
2022/08/29 05:00:57;;;;;;;8.10;3.67;;;15.20;99.90;;;;;;5033777;28;20474;-78
2022/08/29 05:03:22;;;;;;;6.82;3.97;;;15.30;99.90;;;;;;5032531;28;20080;-78
2022/08/29 05:05:58;;;;;;;9.03;3.77;;;15.10;99.90;;;;;;5033417;28;20647;-79
2022/08/29 05:08:24;;;;;;;7.75;3.53;;;15.10;99.90;;;;;;5015703;28;20052;-79
2022/08/29 05:10:50;;;;;;;7.13;3.67;;;15.10;99.90;;;;;;5033411;28;20038;-79
2022/08/29 05:13:16;;;;;;;6.90;3.78;;;15.10;99.90;;;;;;5033243;28;20448;-78
2022/08/29 05:15:42;;;;;;;8.73;3.90;;;15.10;99.90;;;;;;5015953;28;20093;-78
2022/08/29 05:18:08;;;;;;;6.05;3.67;;;15.10;99.90;;;;;;5033243;28;20052;-79
2022/08/29 05:20:34;;;;;;;6.05;3.08;;;15.10;99.90;;;;;;5033155;28;20041;-78
2022/08/29 05:22:59;;;;;;;5.27;3.10;;;15.10;99.90;;;;;;5033420;28;20502;-78
2022/08/29 05:25:25;;;;;;;5.97;3.57;;;15.10;99.90;;;;;;5033562;28;20052;-79
2022/08/29 05:27:50;;;;;;;7.83;3.63;;;15.10;99.90;;;;;;5033065;28;20393;-78
2022/08/29 05:30:16;;;;;;;6.83;3.77;;;15.10;99.90;;;;;;5036564;28;20175;-79
2022/08/29 05:32:42;;;;;;;6.63;3.47;;;15.10;99.90;;;;;;5037026;28;20061;-79
2022/08/29 05:35:08;;;;;;;6.87;3.53;;;15.10;99.90;;;;;;5036914;28;20049;-78
2022/08/29 05:37:34;;;;;;;8.80;3.88;;;15.20;99.90;;;;;;5036841;28;20076;-78
2022/08/29 05:40:00;;;;;;;7.82;3.78;;;15.20;99.90;;;;;;5036887;28;20041;-78
2022/08/29 05:42:26;;;;;;;6.83;4.00;;;15.20;99.90;;;;;;5019375;28;20046;-78
2022/08/29 05:44:52;;;;;;;6.47;3.80;;;15.30;99.90;;;;;;5035454;28;20394;-78
2022/08/29 05:47:19;;;;;;;7.30;3.40;;;15.30;99.90;;;;;;5036760;28;20052;-78
2022/08/29 05:49:47;;;;;;;7.97;3.67;;;15.40;99.90;;;;;;5036634;28;20299;-78
2022/08/29 05:52:14;;;;;;;7.97;3.90;;;15.50;99.90;;;;;;5036913;28;20045;-78
2022/08/29 05:54:41;;;;;;;6.88;4.07;;;15.50;99.90;;;;;;5036871;28;20041;-78
2022/08/29 05:57:07;;;;;;;;;;;15.60;99.90;;;;;;5036900;28;20057;-79
2022/08/29 05:59:34;;;;;;;11.00;4.25;;;15.60;99.90;;;;;;5035589;28;20364;-78
2022/08/29 06:02:00;;;;;;;7.30;4.10;;;15.70;99.90;;;;;;5036375;28;20046;-79
2022/08/29 06:04:26;;;;;;;8.05;3.75;;;15.80;99.90;;;;;;5036292;28;20080;-78
2022/08/29 06:06:51;;;;;;;7.20;4.05;;;15.80;99.90;;;;;;5036315;28;20086;-78
2022/08/29 06:09:17;;;;;;;8.63;4.20;;;15.90;99.90;;;;;;5036228;28;20056;-78
2022/08/29 06:11:46;;;;;;;9.23;4.10;;;15.90;99.90;;;;;;5036543;28;20037;-78
2022/08/29 06:14:13;;;;;;;7.07;3.70;;;15.90;99.90;;;;;;5035752;28;20071;-78
2022/08/29 06:16:40;;;;;;;7.88;3.92;;;16.00;99.90;;;;;;5034878;28;20069;-78
2022/08/29 06:19:06;;;;;;;10.03;3.70;;;16.10;99.90;;;;;;5034943;28;20049;-79
2022/08/29 06:21:31;;;;;;;7.07;3.80;;;16.10;99.90;;;;;;5035019;28;20104;-78
2022/08/29 06:23:57;;;;;;;12.35;4.18;;;16.10;99.90;;;;;;5035181;28;20416;-79
2022/08/29 06:26:23;;;;;;;7.27;3.93;;;16.20;99.90;;;;;;5035976;28;20049;-79
2022/08/29 06:28:48;;;;;;;9.77;3.87;;;16.30;99.90;;;;;;5018012;28;20124;-78
2022/08/29 06:31:20;;;;;;;6.93;3.83;;;16.30;99.90;;;;;;5034621;28;20045;-78
2022/08/29 06:33:49;;;;;;;7.15;3.85;;;16.40;99.90;;;;;;5035766;28;20049;-79
2022/08/29 06:36:15;;;;;;;8.45;3.60;;;16.40;99.90;;;;;;5035751;28;20124;-79
2022/08/29 06:38:41;;;;;;;8.77;3.63;;;16.40;99.90;;;;;;5035447;28;20084;-78
2022/08/29 06:41:09;;;;;;;5.43;3.35;;;16.50;99.90;;;;;;5034778;28;20045;-79
2022/08/29 06:43:35;;;;;;;6.90;3.80;;;16.60;99.90;;;;;;5035629;28;20120;-79
2022/08/29 06:46:01;;;;;;;10.87;4.37;;;16.70;99.90;;;;;;5035628;28;20565;-79
2022/08/29 06:48:27;;;;;;;7.23;3.73;;;16.80;99.90;;;;;;5035564;28;20042;-78
2022/08/29 06:50:53;;;;;;;6.77;4.67;;;16.80;99.90;;;;;;5035500;28;20495;-79
2022/08/29 06:53:21;;;;;;;9.13;4.90;;;16.80;99.90;;;;;;5035795;28;20449;-78
2022/08/29 06:55:47;;;;;;;9.27;6.28;;;16.90;99.90;;;;;;5035670;28;20420;-78
2022/08/29 06:58:13;;;;;;;10.90;7.93;;;17.00;99.90;;;;;;5035462;28;20530;-78
2022/08/29 07:00:40;;;;;;;12.02;7.80;;;17.00;99.90;;;;;;5035306;28;20041;-79
2022/08/29 07:03:06;;;;;;;15.15;9.18;;;17.00;99.90;;;;;;5035276;28;20052;-78
2022/08/29 07:05:32;;;;;;;13.18;8.60;;;17.10;99.90;;;;;;5035284;28;20081;-78
2022/08/29 07:07:57;;;;;;;14.07;9.87;;;17.20;99.90;;;;;;5035312;28;20081;-78
2022/08/29 07:10:23;;;;;;;13.33;8.83;;;17.20;99.90;;;;;;5035132;28;20111;-79
2022/08/29 07:12:50;;;;;;;12.63;8.03;;;17.20;99.90;;;;;;5035059;28;20060;-78
2022/08/29 07:15:16;;;;;;;13.38;6.95;;;17.20;99.90;;;;;;5034821;28;20551;-79
2022/08/29 07:17:41;;;;;;;11.43;6.23;;;17.20;99.90;;;;;;5035113;28;20053;-78
2022/08/29 07:20:08;;;;;;;11.17;5.90;;;17.30;99.90;;;;;;5035669;28;20045;-79
2022/08/29 07:22:34;;;;;;;10.38;5.50;;;17.40;99.90;;;;;;5034984;28;20049;-78
2022/08/29 07:25:00;;;;;;;8.30;5.47;;;17.50;99.90;;;;;;5034915;28;20038;-79
2022/08/29 07:27:26;;;;;;;9.63;4.53;;;17.60;99.90;;;;;;5033821;28;20045;-79
2022/08/29 07:29:51;;;;;;;8.00;3.67;;;17.70;99.90;;;;;;5034818;28;20481;-79
2022/08/29 07:32:17;;;;;;;13.23;3.77;;;17.80;99.90;;;;;;5034716;28;20127;-79
2022/08/29 07:34:43;;;;;;;9.90;4.07;;;17.90;99.90;;;;;;5034634;28;20195;-78
2022/08/29 07:37:09;;;;;;;9.40;3.10;;;18.10;99.90;;;;;;5034617;28;20493;-79
2022/08/29 07:39:35;;;;;;;7.05;3.55;;;18.20;99.90;;;;;;5033527;28;20052;-78
2022/08/29 07:42:02;;;;;;;6.57;2.97;;;18.30;99.90;;;;;;5034586;28;20037;-79
2022/08/29 07:44:27;;;;;;;7.68;3.38;;;18.40;99.90;;;;;;5034514;28;20429;-79
2022/08/29 07:46:59;;;;;;;8.27;2.80;;;18.50;99.90;;;;;;5034467;28;20131;-78
2022/08/29 07:49:27;;;;;;;6.55;2.83;;;18.50;99.90;;;;;;5017661;28;20052;-79
2022/08/29 07:51:54;;;;;;;8.10;2.78;;;18.60;99.90;;;;;;5033626;28;20521;-79
2022/08/29 07:54:20;;;;;;;;;;;18.70;99.90;;;;;;5034752;28;20576;-78
2022/08/29 07:56:47;;;;;;;8.27;2.85;;;18.60;99.90;;;;;;5034447;28;20324;-78
2022/08/29 07:59:14;;;;;;;8.15;2.70;;;18.50;99.90;;;;;;5017083;28;20049;-79
2022/08/29 08:01:40;;;;;;;7.43;2.50;;;18.70;99.90;;;;;;5034252;28;20048;-78
2022/08/29 08:04:06;;;;;;;9.50;2.40;;;18.70;99.90;;;;;;5033251;28;20041;-78
2022/08/29 08:06:33;;;;;;;7.05;2.35;;;18.70;99.90;;;;;;5033977;28;20054;-79
2022/08/29 08:08:59;;;;;;;7.05;2.97;;;18.80;99.90;;;;;;5034137;28;20049;-79
2022/08/29 08:11:25;;;;;;;8.10;2.77;;;18.80;99.90;;;;;;5034177;28;20092;-79
2022/08/29 08:13:53;;;;;;;6.82;2.58;;;18.90;99.90;;;;;;5033922;28;20185;-79
2022/08/29 08:16:20;;;;;;;7.65;2.40;;;19.00;99.90;;;;;;5033714;28;20052;-78
2022/08/29 08:18:46;;;;;;;11.32;2.92;;;19.10;99.90;;;;;;5034007;28;20044;-78
2022/08/29 08:21:12;;;;;;;11.55;2.63;;;19.20;99.90;;;;;;5033362;28;20049;-79
2022/08/29 08:23:38;;;;;;;6.87;2.30;;;19.20;99.90;;;;;;5033111;28;20493;-79
2022/08/29 08:26:05;;;;;;;7.45;2.58;;;19.40;99.90;;;;;;5033926;28;20073;-78
2022/08/29 08:28:31;;;;;;;4.53;2.10;;;19.50;99.90;;;;;;5033949;28;20053;-79
2022/08/29 08:30:59;;;;;;;11.25;3.13;;;19.60;99.90;;;;;;5033730;28;20401;-79
2022/08/29 08:33:25;;;;;;;5.78;2.45;;;19.90;99.90;;;;;;5033718;28;20045;-79
2022/08/29 08:35:50;;;;;;;6.55;3.15;;;19.80;99.90;;;;;;5032637;28;20064;-79
2022/08/29 08:38:17;;;;;;;7.80;2.60;;;19.80;99.90;;;;;;5033988;28;20046;-78
2022/08/29 08:40:55;;;;;;;12.02;2.90;;;19.90;99.90;;;;;;5033900;28;20056;-79
2022/08/29 08:43:27;;;;;;;8.68;2.53;;;19.90;99.90;;;;;;5033682;28;20060;-79
2022/08/29 08:45:54;;;;;;;7.55;2.85;;;20.10;99.90;;;;;;5034378;28;20140;-79
2022/08/29 08:48:30;;;;;;;6.57;2.80;;;20.10;99.90;;;;;;5032817;28;20041;-79
2022/08/29 08:51:06;;;;;;;9.35;2.92;;;20.20;99.90;;;;;;5033582;28;20041;-78
2022/08/29 08:53:41;;;;;;;9.02;2.65;;;20.20;99.90;;;;;;5033720;28;20129;-79
2022/08/29 08:56:35;;;;;;;8.00;2.97;;;20.20;99.90;;;;;;5033326;28;20048;-79
2022/08/29 08:59:22;;;;;;;8.00;3.25;;;20.20;99.90;;;;;;5033781;28;20124;-79
2022/08/29 09:02:26;;;;;;;8.77;3.07;;;20.30;99.90;;;;;;5016716;28;20155;-79
2022/08/29 09:05:01;;;;;;;10.07;2.92;;;20.40;99.90;;;;;;4966904;28;20291;-79
2022/08/29 09:07:41;;;;;;;9.23;2.90;;;20.70;99.90;;;;;;5037655;28;20046;-79
2022/08/29 09:10:24;;;;;;;7.43;2.67;;;21.00;99.90;;;;;;5037758;28;20053;-78
2022/08/29 09:13:05;;;;;;;8.82;2.70;;;21.10;99.90;;;;;;5019764;28;20068;-79
2022/08/29 09:15:42;;;;;;;7.03;2.60;;;21.30;99.90;;;;;;5037645;28;20058;-79
2022/08/29 09:18:22;;;;;;;4.07;2.45;;;21.40;99.90;;;;;;5037217;28;20037;-79
2022/08/29 09:20:49;;;;;;;9.25;2.75;;;21.50;99.90;;;;;;5037394;28;20102;-78
2022/08/29 09:23:24;;;;;;;7.28;2.80;;;21.60;99.90;;;;;;5037246;28;20072;-79
2022/08/29 09:25:50;;;;;;;6.63;2.30;;;21.50;99.90;;;;;;5036587;28;20055;-79
2022/08/29 09:28:16;;;;;;;9.98;3.13;;;21.50;99.90;;;;;;5037142;28;20042;-79
2022/08/29 09:30:45;;;;;;;7.03;2.50;;;21.50;99.90;;;;;;5036862;28;20116;-79
2022/08/29 09:33:15;;;;;;;8.77;2.70;;;21.50;99.90;;;;;;5036178;28;20084;-79
2022/08/29 09:35:50;;;;;;;9.00;2.55;;;21.50;99.90;;;;;;5036978;28;20041;-79
2022/08/29 09:38:16;;;;;;;6.60;2.50;;;21.50;99.90;;;;;;5037397;28;20060;-79
2022/08/29 09:40:50;;;;;;;6.83;2.57;;;21.60;99.90;;;;;;5036845;28;20390;-79
2022/08/29 09:43:38;;;;;;;11.05;3.17;;;21.50;99.90;;;;;;5035916;28;20160;-79
2022/08/29 09:46:10;;;;;;;12.73;3.22;;;21.50;99.90;;;;;;5036823;28;20060;-79
2022/08/29 09:49:12;;;;;;;7.55;2.58;;;21.30;99.90;;;;;;5037154;28;20045;-78
2022/08/29 09:51:41;;;;;;;7.85;2.30;;;21.30;99.90;;;;;;4995059;28;20158;-78
2022/08/29 09:54:15;;;;;;;8.25;2.92;;;21.30;99.90;;;;;;5036629;28;20037;-79
2022/08/29 09:56:52;;;;;;;7.18;2.38;;;21.20;99.90;;;;;;5035408;28;20038;-79
2022/08/29 09:59:40;;;;;;;7.50;2.50;;;21.20;99.90;;;;;;5036586;28;20128;-79
2022/08/29 10:02:56;;;;;;;9.85;2.83;;;21.30;99.90;;;;;;5036589;28;20052;-79
2022/08/29 10:05:32;;;;;;;8.55;2.42;;;21.30;99.90;;;;;;4956111;29;20047;-79
2022/08/29 10:07:58;;;;;;;8.80;3.15;;;21.30;99.90;;;;;;4956154;29;20051;-79
2022/08/29 10:10:27;;;;;;;7.20;2.80;;;21.40;99.90;;;;;;4998826;28;20057;-79
2022/08/29 10:13:18;;;;;;;8.45;3.03;;;21.50;99.90;;;;;;5036416;28;20076;-79
2022/08/29 10:15:52;;;;;;;10.05;3.28;;;21.50;99.90;;;;;;5036171;28;20045;-79
2022/08/29 10:18:41;;;;;;;10.02;2.78;;;21.70;99.90;;;;;;5036190;28;20127;-78
2022/08/29 10:21:13;;;;;;;7.60;2.85;;;21.80;99.90;;;;;;5035296;28;20132;-79
2022/08/29 10:23:48;;;;;;;7.00;2.65;;;21.90;99.90;;;;;;5036053;28;20053;-79
2022/08/29 10:26:42;;;;;;;5.32;2.05;;;21.90;99.90;;;;;;5036069;28;20110;-79
2022/08/29 10:29:26;;;;;;;7.82;2.60;;;22.20;99.90;;;;;;5035872;28;20517;-78
2022/08/29 10:32:13;;;;;;;6.43;2.38;;;22.40;99.90;;;;;;5035571;28;20037;-79
2022/08/29 10:35:18;;;;;;;5.97;2.67;;;22.50;99.90;;;;;;5035607;28;20053;-79
2022/08/29 10:37:49;;;;;;;5.72;2.97;;;22.50;99.90;;;;;;5034704;28;20401;-78
2022/08/29 10:40:25;;;;;;;5.85;2.63;;;22.60;99.90;;;;;;5034762;28;20045;-79
2022/08/29 10:43:06;;;;;;;9.63;2.85;;;22.70;99.90;;;;;;5035325;28;20071;-79
2022/08/29 10:46:14;;;;;;;8.73;2.85;;;22.90;99.90;;;;;;5035767;28;20088;-79
2022/08/29 10:49:15;;;;;;;6.90;2.73;;;22.90;99.90;;;;;;5018339;28;20057;-79
2022/08/29 10:51:49;;;;;;;9.13;2.85;;;23.00;99.90;;;;;;5035562;28;20124;-79
2022/08/29 10:54:31;;;;;;;9.35;2.53;;;23.10;99.90;;;;;;5035829;28;20045;-79
2022/08/29 10:56:58;;;;;;;8.85;2.83;;;23.30;99.90;;;;;;5035543;28;20497;-78
2022/08/29 11:00:06;;;;;;;8.63;2.63;;;23.30;99.90;;;;;;5035294;28;20045;-79
2022/08/29 11:02:40;;;;;;;7.32;2.58;;;23.30;99.90;;;;;;5034637;28;20057;-79
2022/08/29 11:05:20;;;;;;;6.78;2.42;;;23.30;99.90;;;;;;5035211;28;20041;-79
2022/08/29 11:07:53;;;;;;;6.68;2.75;;;23.20;99.90;;;;;;5035316;28;20048;-79
2022/08/29 11:10:24;;;;;;;6.95;2.08;;;23.00;99.90;;;;;;5035386;28;20088;-79
2022/08/29 11:13:20;;;;;;;6.68;2.72;;;23.00;99.90;;;;;;5035534;28;20124;-79
2022/08/29 11:16:21;;;;;;;8.20;2.53;;;23.10;99.90;;;;;;5035243;28;20092;-79
2022/08/29 11:19:01;;;;;;;8.18;2.67;;;23.20;99.90;;;;;;5035421;28;20448;-79
2022/08/29 11:21:38;;;;;;;9.57;2.78;;;23.30;99.90;;;;;;5033908;28;20042;-79
2022/08/29 11:24:04;;;;;;;7.65;2.60;;;23.30;99.90;;;;;;5035147;28;20125;-79
2022/08/29 11:26:42;;;;;;;9.85;2.67;;;23.30;99.90;;;;;;5034946;28;20045;-79
2022/08/29 11:29:23;;;;;;;;;;;23.30;99.90;;;;;;5035273;28;20045;-79
2022/08/29 11:32:00;;;;;;;8.07;2.78;;;23.40;99.90;;;;;;5034728;28;19928;-79
2022/08/29 11:34:30;;;;;;;4.57;2.00;;;23.50;99.90;;;;;;5034430;28;20050;-79
2022/08/29 11:37:14;;;;;;;5.53;2.28;;;23.70;99.90;;;;;;5033365;28;20046;-79
2022/08/29 11:39:56;;;;;;;7.65;2.45;;;23.70;99.90;;;;;;5035111;28;20053;-79
2022/08/29 11:42:29;;;;;;;6.47;2.50;;;23.90;99.90;;;;;;5034825;28;20049;-79
2022/08/29 11:44:57;;;;;;;8.27;2.70;;;24.00;99.90;;;;;;5034612;28;20084;-79
2022/08/29 11:47:46;;;;;;;5.93;2.30;;;24.00;99.90;;;;;;5034428;28;20397;-79
2022/08/29 11:50:33;;;;;;;6.75;2.95;;;24.10;99.90;;;;;;5034511;28;20041;-79
2022/08/29 11:53:12;;;;;;;10.00;2.60;;;23.90;99.90;;;;;;5034481;28;20052;-77
2022/08/29 11:55:44;;;;;;;7.70;2.60;;;24.00;99.90;;;;;;5033060;28;20397;-79
2022/08/29 11:58:13;;;;;;;7.00;2.67;;;24.00;99.90;;;;;;5033588;28;20053;-79
2022/08/29 12:00:44;;;;;;;8.13;2.65;;;24.10;99.90;;;;;;5034626;28;20401;-79
2022/08/29 12:03:39;;;;;;;5.05;2.60;;;24.10;99.90;;;;;;5034606;28;20046;-79
2022/08/29 12:06:14;;;;;;;8.15;2.50;;;24.10;99.90;;;;;;5033694;28;20505;-79
2022/08/29 12:09:00;;;;;;;8.25;2.65;;;23.80;99.90;;;;;;5034199;28;20405;-79
2022/08/29 12:12:03;;;;;;;7.95;2.58;;;23.60;99.90;;;;;;5034274;28;20041;-79
2022/08/29 12:14:31;;;;;;;6.38;2.58;;;23.50;99.90;;;;;;5034033;28;20103;-79
2022/08/29 12:17:01;;;;;;;7.22;2.25;;;23.50;99.90;;;;;;5033794;28;20136;-79
2022/08/29 12:19:51;;;;;;;5.88;2.70;;;23.40;99.90;;;;;;5033054;28;20120;-79
2022/08/29 12:22:48;;;;;;;6.00;2.53;;;23.30;99.90;;;;;;5033987;28;20041;-79
2022/08/29 12:25:43;;;;;;;10.68;2.67;;;23.40;99.90;;;;;;5033256;28;20366;-79
2022/08/29 12:28:16;;;;;;;6.25;2.53;;;23.30;99.90;;;;;;5033912;28;20124;-79
2022/08/29 12:30:48;;;;;;;6.38;2.20;;;23.50;99.90;;;;;;5033987;28;20092;-79
2022/08/29 12:33:48;;;;;;;6.03;2.42;;;23.70;99.90;;;;;;5033873;28;20041;-79
2022/08/29 12:36:39;;;;;;;6.47;2.35;;;23.80;99.90;;;;;;5034006;28;20049;-78
2022/08/29 12:39:19;;;;;;;7.45;2.10;;;24.20;99.90;;;;;;5033817;28;20042;-79
2022/08/29 12:42:24;;;;;;;6.22;2.20;;;24.40;99.90;;;;;;5033631;28;20049;-79
2022/08/29 12:45:15;;;;;;;5.15;2.35;;;24.40;99.90;;;;;;5033925;28;20048;-79
2022/08/29 12:47:46;;;;;;;5.72;2.35;;;24.20;99.90;;;;;;5033378;28;20481;-79
2022/08/29 12:50:25;;;;;;;7.93;2.42;;;24.20;99.90;;;;;;5033863;28;20137;-79
2022/08/29 12:53:25;;;;;;;5.63;2.20;;;24.10;99.90;;;;;;5033583;28;20042;-79
2022/08/29 12:56:01;;;;;;;7.35;2.47;;;24.00;99.90;;;;;;5018633;28;20056;-79
2022/08/29 12:58:52;;;;;;;8.75;2.47;;;23.90;99.90;;;;;;5033562;28;20383;-79
2022/08/29 13:01:31;;;;;;;7.45;2.40;;;24.00;99.90;;;;;;5033901;28;20081;-79
2022/08/29 13:04:13;;;;;;;7.30;2.28;;;24.00;99.90;;;;;;5033796;28;20050;-79
2022/08/29 13:07:01;;;;;;;10.45;2.70;;;23.90;99.90;;;;;;5033541;28;20049;-79
2022/08/29 13:09:37;;;;;;;;;;;24.00;99.90;;;;;;5033348;28;20083;-79
2022/08/29 13:12:17;;;;;;;4.32;2.08;;;24.00;99.90;;;;;;5033229;28;19920;-79